sensor_id;sensor_type;location;lat;lon;timestamp;P1;durP1;ratioP1;P2;durP2;ratioP2
24153;SDS011;12312;53.362;-1.518;2023-05-07T00:02:04;49.05;;;22.58;;
24153;SDS011;12312;53.362;-1.518;2023-05-07T00:04:48;47.83;;;23.17;;
24153;SDS011;12312;53.362;-1.518;2023-05-07T00:07:32;50.67;;;23.35;;
24153;SDS011;12312;53.362;-1.518;2023-05-07T00:10:16;53.15;;;25.77;;
24153;SDS011;12312;53.362;-1.518;2023-05-07T00:13:00;48.47;;;23.55;;
24153;SDS011;12312;53.362;-1.518;2023-05-07T00:15:45;52.00;;;24.38;;
24153;SDS011;12312;53.362;-1.518;2023-05-07T00:18:30;58.72;;;24.45;;
24153;SDS011;12312;53.362;-1.518;2023-05-07T00:21:14;55.75;;;24.63;;
24153;SDS011;12312;53.362;-1.518;2023-05-07T00:23:58;61.35;;;25.33;;
24153;SDS011;12312;53.362;-1.518;2023-05-07T00:26:42;57.03;;;25.05;;
24153;SDS011;12312;53.362;-1.518;2023-05-07T00:29:26;52.78;;;24.75;;
24153;SDS011;12312;53.362;-1.518;2023-05-07T00:32:10;58.08;;;25.10;;
24153;SDS011;12312;53.362;-1.518;2023-05-07T00:34:54;57.55;;;24.83;;
24153;SDS011;12312;53.362;-1.518;2023-05-07T00:37:39;57.08;;;23.95;;
24153;SDS011;12312;53.362;-1.518;2023-05-07T00:40:23;54.70;;;25.05;;
24153;SDS011;12312;53.362;-1.518;2023-05-07T00:43:07;57.00;;;26.02;;
24153;SDS011;12312;53.362;-1.518;2023-05-07T00:45:52;54.45;;;23.98;;
24153;SDS011;12312;53.362;-1.518;2023-05-07T00:48:36;58.95;;;26.52;;
24153;SDS011;12312;53.362;-1.518;2023-05-07T00:51:20;56.03;;;26.25;;
24153;SDS011;12312;53.362;-1.518;2023-05-07T00:54:04;55.60;;;26.02;;
24153;SDS011;12312;53.362;-1.518;2023-05-07T00:56:48;54.65;;;24.77;;
24153;SDS011;12312;53.362;-1.518;2023-05-07T00:59:33;51.35;;;22.58;;
24153;SDS011;12312;53.362;-1.518;2023-05-07T01:02:18;51.70;;;22.50;;
24153;SDS011;12312;53.362;-1.518;2023-05-07T01:05:02;52.90;;;23.65;;
24153;SDS011;12312;53.362;-1.518;2023-05-07T01:07:49;45.42;;;21.65;;
24153;SDS011;12312;53.362;-1.518;2023-05-07T01:10:34;47.20;;;21.75;;
24153;SDS011;12312;53.362;-1.518;2023-05-07T01:13:18;48.45;;;21.88;;
24153;SDS011;12312;53.362;-1.518;2023-05-07T01:16:04;47.13;;;21.35;;
24153;SDS011;12312;53.362;-1.518;2023-05-07T01:18:49;46.90;;;20.95;;
24153;SDS011;12312;53.362;-1.518;2023-05-07T01:21:33;48.50;;;21.08;;
24153;SDS011;12312;53.362;-1.518;2023-05-07T01:24:20;49.70;;;22.30;;
24153;SDS011;12312;53.362;-1.518;2023-05-07T01:27:04;45.10;;;20.60;;
24153;SDS011;12312;53.362;-1.518;2023-05-07T01:29:48;46.38;;;21.58;;
24153;SDS011;12312;53.362;-1.518;2023-05-07T01:35:35;48.75;;;21.75;;
24153;SDS011;12312;53.362;-1.518;2023-05-07T01:38:23;49.45;;;21.67;;
24153;SDS011;12312;53.362;-1.518;2023-05-07T01:41:07;43.35;;;19.55;;
24153;SDS011;12312;53.362;-1.518;2023-05-07T01:43:51;44.08;;;20.83;;
24153;SDS011;12312;53.362;-1.518;2023-05-07T01:46:36;43.83;;;19.92;;
24153;SDS011;12312;53.362;-1.518;2023-05-07T01:49:20;47.35;;;21.13;;
24153;SDS011;12312;53.362;-1.518;2023-05-07T01:52:04;54.40;;;22.85;;
24153;SDS011;12312;53.362;-1.518;2023-05-07T01:54:48;47.03;;;19.98;;
24153;SDS011;12312;53.362;-1.518;2023-05-07T01:57:32;43.33;;;20.70;;
24153;SDS011;12312;53.362;-1.518;2023-05-07T02:00:16;47.72;;;21.38;;
24153;SDS011;12312;53.362;-1.518;2023-05-07T02:03:01;54.50;;;23.10;;
24153;SDS011;12312;53.362;-1.518;2023-05-07T02:05:45;50.35;;;21.45;;
24153;SDS011;12312;53.362;-1.518;2023-05-07T02:08:29;45.58;;;20.45;;
24153;SDS011;12312;53.362;-1.518;2023-05-07T02:11:13;51.08;;;22.33;;
24153;SDS011;12312;53.362;-1.518;2023-05-07T02:13:57;50.55;;;21.58;;
24153;SDS011;12312;53.362;-1.518;2023-05-07T02:16:41;48.75;;;22.45;;
24153;SDS011;12312;53.362;-1.518;2023-05-07T02:19:25;46.45;;;20.90;;
24153;SDS011;12312;53.362;-1.518;2023-05-07T02:22:09;49.45;;;22.00;;
24153;SDS011;12312;53.362;-1.518;2023-05-07T02:24:54;46.85;;;20.63;;
24153;SDS011;12312;53.362;-1.518;2023-05-07T02:27:37;47.67;;;21.17;;
24153;SDS011;12312;53.362;-1.518;2023-05-07T02:30:21;48.00;;;22.08;;
24153;SDS011;12312;53.362;-1.518;2023-05-07T02:33:05;48.45;;;21.15;;
24153;SDS011;12312;53.362;-1.518;2023-05-07T02:38:35;42.97;;;18.25;;
24153;SDS011;12312;53.362;-1.518;2023-05-07T02:41:20;45.65;;;18.67;;
24153;SDS011;12312;53.362;-1.518;2023-05-07T02:44:04;42.22;;;18.52;;
24153;SDS011;12312;53.362;-1.518;2023-05-07T02:46:48;44.25;;;19.38;;
24153;SDS011;12312;53.362;-1.518;2023-05-07T02:49:32;45.58;;;18.90;;
24153;SDS011;12312;53.362;-1.518;2023-05-07T02:52:16;39.53;;;17.15;;
24153;SDS011;12312;53.362;-1.518;2023-05-07T02:55:00;39.08;;;16.42;;
24153;SDS011;12312;53.362;-1.518;2023-05-07T02:57:44;35.45;;;15.80;;
24153;SDS011;12312;53.362;-1.518;2023-05-07T03:00:28;35.65;;;15.80;;
24153;SDS011;12312;53.362;-1.518;2023-05-07T03:03:12;34.90;;;15.45;;
24153;SDS011;12312;53.362;-1.518;2023-05-07T03:05:58;33.35;;;14.27;;
24153;SDS011;12312;53.362;-1.518;2023-05-07T03:08:42;30.02;;;13.52;;
24153;SDS011;12312;53.362;-1.518;2023-05-07T03:11:26;32.35;;;14.48;;
24153;SDS011;12312;53.362;-1.518;2023-05-07T03:14:10;36.78;;;16.92;;
24153;SDS011;12312;53.362;-1.518;2023-05-07T03:16:54;43.45;;;17.02;;
24153;SDS011;12312;53.362;-1.518;2023-05-07T03:19:38;50.70;;;19.20;;
24153;SDS011;12312;53.362;-1.518;2023-05-07T03:22:22;49.40;;;18.98;;
24153;SDS011;12312;53.362;-1.518;2023-05-07T03:25:06;47.30;;;18.23;;
24153;SDS011;12312;53.362;-1.518;2023-05-07T03:27:51;48.80;;;18.23;;
24153;SDS011;12312;53.362;-1.518;2023-05-07T03:30:35;48.83;;;17.83;;
24153;SDS011;12312;53.362;-1.518;2023-05-07T03:33:19;349.45;;;31.05;;
24153;SDS011;12312;53.362;-1.518;2023-05-07T03:36:04;56.35;;;19.52;;
24153;SDS011;12312;53.362;-1.518;2023-05-07T03:38:48;51.85;;;18.83;;
24153;SDS011;12312;53.362;-1.518;2023-05-07T03:41:36;44.72;;;17.95;;
24153;SDS011;12312;53.362;-1.518;2023-05-07T03:44:20;171.10;;;23.60;;
24153;SDS011;12312;53.362;-1.518;2023-05-07T03:47:04;152.02;;;23.63;;
24153;SDS011;12312;53.362;-1.518;2023-05-07T03:49:48;44.58;;;17.15;;
24153;SDS011;12312;53.362;-1.518;2023-05-07T03:52:34;46.88;;;16.92;;
24153;SDS011;12312;53.362;-1.518;2023-05-07T03:55:18;41.13;;;16.38;;
24153;SDS011;12312;53.362;-1.518;2023-05-07T03:58:02;37.15;;;15.73;;
24153;SDS011;12312;53.362;-1.518;2023-05-07T04:00:46;39.72;;;15.75;;
24153;SDS011;12312;53.362;-1.518;2023-05-07T04:03:30;38.20;;;15.52;;
24153;SDS011;12312;53.362;-1.518;2023-05-07T04:06:15;36.80;;;15.02;;
24153;SDS011;12312;53.362;-1.518;2023-05-07T04:09:00;34.65;;;14.93;;
24153;SDS011;12312;53.362;-1.518;2023-05-07T04:11:45;34.92;;;15.15;;
24153;SDS011;12312;53.362;-1.518;2023-05-07T04:14:28;33.38;;;14.70;;
24153;SDS011;12312;53.362;-1.518;2023-05-07T04:17:14;26.65;;;13.95;;
24153;SDS011;12312;53.362;-1.518;2023-05-07T04:19:58;25.67;;;13.68;;
24153;SDS011;12312;53.362;-1.518;2023-05-07T04:22:42;25.10;;;12.35;;
24153;SDS011;12312;53.362;-1.518;2023-05-07T04:25:26;25.10;;;13.02;;
24153;SDS011;12312;53.362;-1.518;2023-05-07T04:28:11;23.08;;;12.13;;
24153;SDS011;12312;53.362;-1.518;2023-05-07T04:30:56;23.52;;;12.70;;
24153;SDS011;12312;53.362;-1.518;2023-05-07T04:33:40;25.00;;;13.63;;
24153;SDS011;12312;53.362;-1.518;2023-05-07T04:36:24;26.35;;;13.70;;
24153;SDS011;12312;53.362;-1.518;2023-05-07T04:39:11;28.02;;;14.35;;
24153;SDS011;12312;53.362;-1.518;2023-05-07T04:41:55;31.08;;;14.80;;
24153;SDS011;12312;53.362;-1.518;2023-05-07T04:44:39;29.40;;;13.55;;
24153;SDS011;12312;53.362;-1.518;2023-05-07T04:47:23;23.58;;;11.80;;
24153;SDS011;12312;53.362;-1.518;2023-05-07T04:50:07;24.48;;;12.43;;
24153;SDS011;12312;53.362;-1.518;2023-05-07T04:52:52;19.35;;;9.90;;
24153;SDS011;12312;53.362;-1.518;2023-05-07T04:55:36;13.27;;;7.47;;
24153;SDS011;12312;53.362;-1.518;2023-05-07T04:58:20;10.55;;;6.00;;
24153;SDS011;12312;53.362;-1.518;2023-05-07T05:01:04;8.50;;;5.68;;
24153;SDS011;12312;53.362;-1.518;2023-05-07T05:03:48;7.40;;;4.60;;
24153;SDS011;12312;53.362;-1.518;2023-05-07T05:06:32;8.48;;;4.32;;
24153;SDS011;12312;53.362;-1.518;2023-05-07T05:09:16;9.80;;;4.43;;
24153;SDS011;12312;53.362;-1.518;2023-05-07T05:12:01;6.63;;;3.60;;
24153;SDS011;12312;53.362;-1.518;2023-05-07T05:14:45;6.43;;;4.40;;
24153;SDS011;12312;53.362;-1.518;2023-05-07T05:17:29;7.97;;;4.55;;
24153;SDS011;12312;53.362;-1.518;2023-05-07T05:20:13;6.63;;;4.38;;
24153;SDS011;12312;53.362;-1.518;2023-05-07T05:22:58;8.20;;;5.43;;
24153;SDS011;12312;53.362;-1.518;2023-05-07T05:25:42;9.15;;;5.57;;
24153;SDS011;12312;53.362;-1.518;2023-05-07T05:28:26;10.30;;;5.78;;
24153;SDS011;12312;53.362;-1.518;2023-05-07T05:31:10;11.00;;;6.43;;
24153;SDS011;12312;53.362;-1.518;2023-05-07T05:33:55;7.70;;;5.75;;
24153;SDS011;12312;53.362;-1.518;2023-05-07T05:36:38;8.43;;;5.45;;
24153;SDS011;12312;53.362;-1.518;2023-05-07T05:39:22;9.60;;;5.50;;
24153;SDS011;12312;53.362;-1.518;2023-05-07T05:42:06;10.20;;;6.40;;
24153;SDS011;12312;53.362;-1.518;2023-05-07T05:44:50;10.85;;;6.22;;
24153;SDS011;12312;53.362;-1.518;2023-05-07T05:47:34;8.15;;;6.30;;
24153;SDS011;12312;53.362;-1.518;2023-05-07T05:50:18;11.07;;;6.60;;
24153;SDS011;12312;53.362;-1.518;2023-05-07T05:53:03;11.35;;;6.97;;
24153;SDS011;12312;53.362;-1.518;2023-05-07T05:55:47;11.25;;;7.00;;
24153;SDS011;12312;53.362;-1.518;2023-05-07T05:58:31;12.00;;;7.72;;
24153;SDS011;12312;53.362;-1.518;2023-05-07T06:01:16;14.32;;;8.48;;
24153;SDS011;12312;53.362;-1.518;2023-05-07T06:04:01;18.33;;;10.50;;
24153;SDS011;12312;53.362;-1.518;2023-05-07T06:06:46;22.10;;;12.25;;
24153;SDS011;12312;53.362;-1.518;2023-05-07T06:09:30;17.40;;;11.07;;
24153;SDS011;12312;53.362;-1.518;2023-05-07T06:12:15;19.40;;;12.27;;
24153;SDS011;12312;53.362;-1.518;2023-05-07T06:14:59;23.73;;;14.00;;
24153;SDS011;12312;53.362;-1.518;2023-05-07T06:17:43;24.80;;;14.45;;
24153;SDS011;12312;53.362;-1.518;2023-05-07T06:20:27;21.67;;;14.05;;
24153;SDS011;12312;53.362;-1.518;2023-05-07T06:23:11;20.10;;;12.57;;
24153;SDS011;12312;53.362;-1.518;2023-05-07T06:25:55;20.88;;;12.85;;
24153;SDS011;12312;53.362;-1.518;2023-05-07T06:28:39;27.05;;;13.57;;
24153;SDS011;12312;53.362;-1.518;2023-05-07T06:31:28;25.02;;;13.98;;
24153;SDS011;12312;53.362;-1.518;2023-05-07T06:34:14;18.48;;;12.23;;
24153;SDS011;12312;53.362;-1.518;2023-05-07T06:36:58;16.17;;;10.57;;
24153;SDS011;12312;53.362;-1.518;2023-05-07T06:39:42;18.00;;;10.85;;
24153;SDS011;12312;53.362;-1.518;2023-05-07T06:42:26;16.17;;;10.25;;
24153;SDS011;12312;53.362;-1.518;2023-05-07T06:45:10;13.68;;;8.75;;
24153;SDS011;12312;53.362;-1.518;2023-05-07T06:47:55;14.50;;;9.68;;
24153;SDS011;12312;53.362;-1.518;2023-05-07T06:50:39;17.45;;;10.23;;
24153;SDS011;12312;53.362;-1.518;2023-05-07T06:53:24;14.02;;;9.57;;
24153;SDS011;12312;53.362;-1.518;2023-05-07T06:56:09;15.77;;;10.23;;
24153;SDS011;12312;53.362;-1.518;2023-05-07T06:58:53;13.80;;;9.30;;
24153;SDS011;12312;53.362;-1.518;2023-05-07T07:01:37;15.85;;;10.48;;
24153;SDS011;12312;53.362;-1.518;2023-05-07T07:04:21;20.20;;;12.20;;
24153;SDS011;12312;53.362;-1.518;2023-05-07T07:07:07;19.92;;;11.27;;
24153;SDS011;12312;53.362;-1.518;2023-05-07T07:09:51;20.27;;;11.77;;
24153;SDS011;12312;53.362;-1.518;2023-05-07T07:12:35;17.08;;;11.27;;
24153;SDS011;12312;53.362;-1.518;2023-05-07T07:15:19;21.42;;;12.18;;
24153;SDS011;12312;53.362;-1.518;2023-05-07T07:18:04;19.52;;;11.50;;
24153;SDS011;12312;53.362;-1.518;2023-05-07T07:20:48;16.92;;;11.02;;
24153;SDS011;12312;53.362;-1.518;2023-05-07T07:23:33;18.33;;;10.93;;
24153;SDS011;12312;53.362;-1.518;2023-05-07T07:26:18;20.00;;;11.10;;
24153;SDS011;12312;53.362;-1.518;2023-05-07T07:29:02;19.30;;;11.27;;
24153;SDS011;12312;53.362;-1.518;2023-05-07T07:31:46;18.63;;;10.40;;
24153;SDS011;12312;53.362;-1.518;2023-05-07T07:34:30;17.80;;;9.75;;
24153;SDS011;12312;53.362;-1.518;2023-05-07T07:37:14;16.45;;;9.98;;
24153;SDS011;12312;53.362;-1.518;2023-05-07T07:40:01;19.45;;;10.48;;
24153;SDS011;12312;53.362;-1.518;2023-05-07T07:42:45;18.92;;;10.65;;
24153;SDS011;12312;53.362;-1.518;2023-05-07T07:45:29;14.43;;;9.40;;
24153;SDS011;12312;53.362;-1.518;2023-05-07T07:48:14;16.98;;;9.98;;
24153;SDS011;12312;53.362;-1.518;2023-05-07T07:50:58;14.65;;;9.88;;
24153;SDS011;12312;53.362;-1.518;2023-05-07T07:53:42;15.48;;;9.70;;
24153;SDS011;12312;53.362;-1.518;2023-05-07T07:56:27;16.33;;;9.80;;
24153;SDS011;12312;53.362;-1.518;2023-05-07T07:59:10;19.80;;;9.90;;
24153;SDS011;12312;53.362;-1.518;2023-05-07T08:01:55;17.60;;;9.10;;
24153;SDS011;12312;53.362;-1.518;2023-05-07T08:04:40;15.10;;;8.63;;
24153;SDS011;12312;53.362;-1.518;2023-05-07T08:07:25;12.20;;;8.27;;
24153;SDS011;12312;53.362;-1.518;2023-05-07T08:10:09;13.95;;;8.18;;
24153;SDS011;12312;53.362;-1.518;2023-05-07T08:12:55;13.68;;;7.78;;
24153;SDS011;12312;53.362;-1.518;2023-05-07T08:15:39;11.35;;;7.30;;
24153;SDS011;12312;53.362;-1.518;2023-05-07T08:18:24;10.95;;;6.68;;
24153;SDS011;12312;53.362;-1.518;2023-05-07T08:21:08;11.63;;;7.00;;
24153;SDS011;12312;53.362;-1.518;2023-05-07T08:23:52;12.20;;;6.00;;
24153;SDS011;12312;53.362;-1.518;2023-05-07T08:26:36;13.32;;;7.30;;
24153;SDS011;12312;53.362;-1.518;2023-05-07T08:29:22;9.40;;;6.85;;
24153;SDS011;12312;53.362;-1.518;2023-05-07T08:32:06;13.63;;;6.57;;
24153;SDS011;12312;53.362;-1.518;2023-05-07T08:34:50;9.70;;;6.18;;
24153;SDS011;12312;53.362;-1.518;2023-05-07T08:37:34;9.75;;;6.15;;
24153;SDS011;12312;53.362;-1.518;2023-05-07T08:40:18;7.10;;;4.25;;
24153;SDS011;12312;53.362;-1.518;2023-05-07T08:43:03;8.63;;;4.60;;
24153;SDS011;12312;53.362;-1.518;2023-05-07T08:45:49;7.00;;;5.07;;
24153;SDS011;12312;53.362;-1.518;2023-05-07T08:48:38;7.18;;;4.82;;
24153;SDS011;12312;53.362;-1.518;2023-05-07T08:51:23;8.15;;;4.68;;
24153;SDS011;12312;53.362;-1.518;2023-05-07T08:54:07;8.70;;;5.00;;
24153;SDS011;12312;53.362;-1.518;2023-05-07T08:56:54;8.88;;;5.88;;
24153;SDS011;12312;53.362;-1.518;2023-05-07T08:59:39;9.32;;;6.03;;
24153;SDS011;12312;53.362;-1.518;2023-05-07T09:02:23;10.43;;;6.40;;
24153;SDS011;12312;53.362;-1.518;2023-05-07T09:05:07;9.15;;;6.60;;
24153;SDS011;12312;53.362;-1.518;2023-05-07T09:07:51;8.82;;;5.38;;
24153;SDS011;12312;53.362;-1.518;2023-05-07T09:10:35;10.02;;;6.20;;
24153;SDS011;12312;53.362;-1.518;2023-05-07T09:13:19;9.25;;;6.20;;
24153;SDS011;12312;53.362;-1.518;2023-05-07T09:16:11;10.65;;;7.05;;
24153;SDS011;12312;53.362;-1.518;2023-05-07T09:18:56;10.90;;;6.38;;
24153;SDS011;12312;53.362;-1.518;2023-05-07T09:21:41;11.55;;;7.03;;
24153;SDS011;12312;53.362;-1.518;2023-05-07T09:24:25;10.48;;;6.28;;
24153;SDS011;12312;53.362;-1.518;2023-05-07T09:27:09;9.25;;;6.38;;
24153;SDS011;12312;53.362;-1.518;2023-05-07T09:29:56;8.10;;;5.55;;
24153;SDS011;12312;53.362;-1.518;2023-05-07T09:32:40;8.73;;;5.43;;
24153;SDS011;12312;53.362;-1.518;2023-05-07T09:35:25;11.07;;;6.70;;
24153;SDS011;12312;53.362;-1.518;2023-05-07T09:38:13;14.15;;;7.28;;
24153;SDS011;12312;53.362;-1.518;2023-05-07T09:41:01;11.10;;;6.50;;
24153;SDS011;12312;53.362;-1.518;2023-05-07T09:43:53;10.98;;;6.30;;
24153;SDS011;12312;53.362;-1.518;2023-05-07T09:46:38;10.18;;;6.63;;
24153;SDS011;12312;53.362;-1.518;2023-05-07T09:52:09;10.70;;;5.90;;
24153;SDS011;12312;53.362;-1.518;2023-05-07T09:54:54;8.93;;;5.63;;
24153;SDS011;12312;53.362;-1.518;2023-05-07T09:57:40;6.90;;;5.15;;
24153;SDS011;12312;53.362;-1.518;2023-05-07T10:00:26;6.88;;;4.75;;
24153;SDS011;12312;53.362;-1.518;2023-05-07T10:03:12;6.85;;;4.30;;
24153;SDS011;12312;53.362;-1.518;2023-05-07T10:05:58;8.27;;;4.78;;
24153;SDS011;12312;53.362;-1.518;2023-05-07T10:08:43;14.43;;;6.18;;
24153;SDS011;12312;53.362;-1.518;2023-05-07T10:11:27;9.57;;;5.10;;
24153;SDS011;12312;53.362;-1.518;2023-05-07T10:14:12;12.05;;;5.65;;
24153;SDS011;12312;53.362;-1.518;2023-05-07T10:16:57;8.73;;;5.05;;
24153;SDS011;12312;53.362;-1.518;2023-05-07T10:19:44;10.50;;;5.55;;
24153;SDS011;12312;53.362;-1.518;2023-05-07T10:22:28;11.13;;;5.03;;
24153;SDS011;12312;53.362;-1.518;2023-05-07T10:25:28;10.32;;;5.35;;
24153;SDS011;12312;53.362;-1.518;2023-05-07T10:28:14;9.38;;;5.20;;
24153;SDS011;12312;53.362;-1.518;2023-05-07T10:31:25;8.07;;;5.32;;
24153;SDS011;12312;53.362;-1.518;2023-05-07T10:34:29;12.20;;;5.40;;
24153;SDS011;12312;53.362;-1.518;2023-05-07T10:37:19;9.90;;;5.63;;
24153;SDS011;12312;53.362;-1.518;2023-05-07T10:40:03;9.07;;;5.78;;
24153;SDS011;12312;53.362;-1.518;2023-05-07T10:42:58;8.68;;;4.60;;
24153;SDS011;12312;53.362;-1.518;2023-05-07T10:46:32;9.10;;;5.25;;
24153;SDS011;12312;53.362;-1.518;2023-05-07T10:51:45;11.98;;;5.68;;
24153;SDS011;12312;53.362;-1.518;2023-05-07T10:55:18;13.32;;;6.10;;
24153;SDS011;12312;53.362;-1.518;2023-05-07T11:01:05;11.60;;;5.22;;
24153;SDS011;12312;53.362;-1.518;2023-05-07T11:09:57;8.95;;;4.22;;
24153;SDS011;12312;53.362;-1.518;2023-05-07T11:12:51;5.85;;;3.67;;
24153;SDS011;12312;53.362;-1.518;2023-05-07T11:15:57;7.38;;;4.13;;
24153;SDS011;12312;53.362;-1.518;2023-05-07T11:18:49;7.15;;;3.50;;
24153;SDS011;12312;53.362;-1.518;2023-05-07T11:21:39;5.90;;;3.70;;
24153;SDS011;12312;53.362;-1.518;2023-05-07T11:24:26;7.70;;;3.40;;
24153;SDS011;12312;53.362;-1.518;2023-05-07T11:27:10;8.07;;;3.80;;
24153;SDS011;12312;53.362;-1.518;2023-05-07T11:29:55;8.55;;;3.47;;
24153;SDS011;12312;53.362;-1.518;2023-05-07T11:32:40;6.13;;;3.05;;
24153;SDS011;12312;53.362;-1.518;2023-05-07T11:35:24;5.30;;;2.58;;
24153;SDS011;12312;53.362;-1.518;2023-05-07T11:38:08;5.45;;;2.50;;
24153;SDS011;12312;53.362;-1.518;2023-05-07T11:40:57;10.13;;;3.20;;
24153;SDS011;12312;53.362;-1.518;2023-05-07T11:43:54;7.75;;;3.28;;
24153;SDS011;12312;53.362;-1.518;2023-05-07T11:46:42;5.45;;;2.33;;
24153;SDS011;12312;53.362;-1.518;2023-05-07T11:49:27;9.23;;;2.50;;
24153;SDS011;12312;53.362;-1.518;2023-05-07T11:52:11;7.65;;;2.50;;
24153;SDS011;12312;53.362;-1.518;2023-05-07T11:54:59;7.15;;;2.70;;
24153;SDS011;12312;53.362;-1.518;2023-05-07T11:57:43;5.70;;;2.25;;
24153;SDS011;12312;53.362;-1.518;2023-05-07T12:00:28;5.63;;;2.22;;
24153;SDS011;12312;53.362;-1.518;2023-05-07T12:03:12;6.72;;;2.67;;
24153;SDS011;12312;53.362;-1.518;2023-05-07T12:05:56;9.10;;;2.72;;
24153;SDS011;12312;53.362;-1.518;2023-05-07T12:08:41;6.20;;;2.10;;
24153;SDS011;12312;53.362;-1.518;2023-05-07T12:11:25;6.97;;;2.67;;
24153;SDS011;12312;53.362;-1.518;2023-05-07T12:14:09;6.50;;;2.20;;
24153;SDS011;12312;53.362;-1.518;2023-05-07T12:16:53;7.28;;;1.77;;
24153;SDS011;12312;53.362;-1.518;2023-05-07T12:19:39;6.95;;;1.90;;
24153;SDS011;12312;53.362;-1.518;2023-05-07T12:22:25;8.57;;;1.75;;
24153;SDS011;12312;53.362;-1.518;2023-05-07T12:25:10;7.05;;;2.17;;
24153;SDS011;12312;53.362;-1.518;2023-05-07T12:27:54;7.65;;;3.30;;
24153;SDS011;12312;53.362;-1.518;2023-05-07T12:30:39;3.97;;;1.73;;
24153;SDS011;12312;53.362;-1.518;2023-05-07T12:33:24;6.35;;;1.80;;
24153;SDS011;12312;53.362;-1.518;2023-05-07T12:36:11;5.68;;;1.90;;
24153;SDS011;12312;53.362;-1.518;2023-05-07T12:38:56;6.03;;;1.98;;
24153;SDS011;12312;53.362;-1.518;2023-05-07T12:41:53;6.90;;;1.88;;
24153;SDS011;12312;53.362;-1.518;2023-05-07T12:44:39;10.02;;;3.50;;
24153;SDS011;12312;53.362;-1.518;2023-05-07T12:47:23;4.97;;;2.00;;
24153;SDS011;12312;53.362;-1.518;2023-05-07T12:50:07;6.20;;;2.03;;
24153;SDS011;12312;53.362;-1.518;2023-05-07T12:52:51;9.73;;;3.08;;
24153;SDS011;12312;53.362;-1.518;2023-05-07T12:55:42;7.72;;;1.90;;
24153;SDS011;12312;53.362;-1.518;2023-05-07T12:58:33;5.40;;;1.83;;
24153;SDS011;12312;53.362;-1.518;2023-05-07T13:01:18;6.75;;;1.77;;
24153;SDS011;12312;53.362;-1.518;2023-05-07T13:04:03;8.00;;;2.13;;
24153;SDS011;12312;53.362;-1.518;2023-05-07T13:06:47;9.63;;;2.72;;
24153;SDS011;12312;53.362;-1.518;2023-05-07T13:09:31;9.27;;;1.98;;
24153;SDS011;12312;53.362;-1.518;2023-05-07T13:12:15;7.20;;;2.75;;
24153;SDS011;12312;53.362;-1.518;2023-05-07T13:14:59;7.70;;;2.40;;
24153;SDS011;12312;53.362;-1.518;2023-05-07T13:17:43;6.03;;;2.30;;
24153;SDS011;12312;53.362;-1.518;2023-05-07T13:20:28;7.00;;;2.00;;
24153;SDS011;12312;53.362;-1.518;2023-05-07T13:23:12;9.68;;;2.15;;
24153;SDS011;12312;53.362;-1.518;2023-05-07T13:25:56;5.82;;;2.05;;
24153;SDS011;12312;53.362;-1.518;2023-05-07T13:28:40;10.68;;;2.40;;
24153;SDS011;12312;53.362;-1.518;2023-05-07T13:31:25;5.82;;;2.20;;
24153;SDS011;12312;53.362;-1.518;2023-05-07T13:34:09;8.05;;;2.13;;
24153;SDS011;12312;53.362;-1.518;2023-05-07T13:36:53;7.55;;;2.38;;
24153;SDS011;12312;53.362;-1.518;2023-05-07T13:39:38;7.68;;;3.08;;
24153;SDS011;12312;53.362;-1.518;2023-05-07T13:42:22;6.13;;;2.80;;
24153;SDS011;12312;53.362;-1.518;2023-05-07T13:45:07;5.93;;;2.60;;
24153;SDS011;12312;53.362;-1.518;2023-05-07T13:47:51;5.50;;;2.40;;
24153;SDS011;12312;53.362;-1.518;2023-05-07T13:50:35;9.00;;;3.72;;
24153;SDS011;12312;53.362;-1.518;2023-05-07T13:53:19;11.55;;;3.03;;
24153;SDS011;12312;53.362;-1.518;2023-05-07T13:56:03;9.35;;;2.90;;
24153;SDS011;12312;53.362;-1.518;2023-05-07T13:58:48;7.97;;;2.92;;
24153;SDS011;12312;53.362;-1.518;2023-05-07T14:01:32;6.93;;;2.10;;
24153;SDS011;12312;53.362;-1.518;2023-05-07T14:04:16;5.28;;;2.00;;
24153;SDS011;12312;53.362;-1.518;2023-05-07T14:07:00;7.00;;;2.10;;
24153;SDS011;12312;53.362;-1.518;2023-05-07T14:09:44;5.50;;;2.08;;
24153;SDS011;12312;53.362;-1.518;2023-05-07T14:12:29;6.70;;;2.13;;
24153;SDS011;12312;53.362;-1.518;2023-05-07T14:15:14;5.18;;;2.38;;
24153;SDS011;12312;53.362;-1.518;2023-05-07T14:17:59;7.30;;;2.40;;
24153;SDS011;12312;53.362;-1.518;2023-05-07T14:23:29;5.15;;;2.20;;
24153;SDS011;12312;53.362;-1.518;2023-05-07T14:26:14;8.68;;;2.33;;
24153;SDS011;12312;53.362;-1.518;2023-05-07T14:28:58;7.00;;;2.20;;
24153;SDS011;12312;53.362;-1.518;2023-05-07T14:31:42;5.85;;;2.17;;
24153;SDS011;12312;53.362;-1.518;2023-05-07T14:34:26;7.18;;;2.08;;
24153;SDS011;12312;53.362;-1.518;2023-05-07T14:37:10;6.68;;;2.60;;
24153;SDS011;12312;53.362;-1.518;2023-05-07T14:39:54;3.72;;;1.60;;
24153;SDS011;12312;53.362;-1.518;2023-05-07T14:42:38;4.45;;;1.70;;
24153;SDS011;12312;53.362;-1.518;2023-05-07T14:45:22;5.45;;;2.47;;
24153;SDS011;12312;53.362;-1.518;2023-05-07T14:48:07;5.97;;;2.20;;
24153;SDS011;12312;53.362;-1.518;2023-05-07T14:50:52;5.73;;;2.20;;
24153;SDS011;12312;53.362;-1.518;2023-05-07T14:53:36;6.78;;;2.30;;
24153;SDS011;12312;53.362;-1.518;2023-05-07T14:56:20;5.18;;;2.30;;
24153;SDS011;12312;53.362;-1.518;2023-05-07T14:59:05;7.43;;;2.67;;
24153;SDS011;12312;53.362;-1.518;2023-05-07T15:01:49;4.65;;;2.90;;
24153;SDS011;12312;53.362;-1.518;2023-05-07T15:04:33;7.05;;;3.00;;
24153;SDS011;12312;53.362;-1.518;2023-05-07T15:07:18;6.53;;;3.25;;
24153;SDS011;12312;53.362;-1.518;2023-05-07T15:10:02;5.95;;;3.20;;
24153;SDS011;12312;53.362;-1.518;2023-05-07T15:12:46;8.55;;;3.90;;
24153;SDS011;12312;53.362;-1.518;2023-05-07T15:15:30;6.05;;;3.53;;
24153;SDS011;12312;53.362;-1.518;2023-05-07T15:18:14;5.40;;;3.03;;
24153;SDS011;12312;53.362;-1.518;2023-05-07T15:20:59;5.07;;;2.85;;
24153;SDS011;12312;53.362;-1.518;2023-05-07T15:23:43;8.27;;;2.97;;
24153;SDS011;12312;53.362;-1.518;2023-05-07T15:26:28;6.22;;;2.60;;
24153;SDS011;12312;53.362;-1.518;2023-05-07T15:29:12;8.65;;;2.78;;
24153;SDS011;12312;53.362;-1.518;2023-05-07T15:31:56;5.50;;;2.90;;
24153;SDS011;12312;53.362;-1.518;2023-05-07T15:34:41;5.93;;;2.90;;
24153;SDS011;12312;53.362;-1.518;2023-05-07T15:37:25;12.18;;;3.75;;
24153;SDS011;12312;53.362;-1.518;2023-05-07T15:40:09;6.03;;;3.03;;
24153;SDS011;12312;53.362;-1.518;2023-05-07T15:42:54;5.82;;;3.35;;
24153;SDS011;12312;53.362;-1.518;2023-05-07T15:45:40;5.70;;;3.22;;
24153;SDS011;12312;53.362;-1.518;2023-05-07T15:48:26;5.93;;;3.30;;
24153;SDS011;12312;53.362;-1.518;2023-05-07T15:51:10;5.97;;;3.17;;
24153;SDS011;12312;53.362;-1.518;2023-05-07T15:53:55;6.00;;;2.40;;
24153;SDS011;12312;53.362;-1.518;2023-05-07T15:56:39;6.70;;;2.35;;
24153;SDS011;12312;53.362;-1.518;2023-05-07T15:59:23;8.18;;;2.78;;
24153;SDS011;12312;53.362;-1.518;2023-05-07T16:02:07;5.95;;;2.65;;
24153;SDS011;12312;53.362;-1.518;2023-05-07T16:04:53;5.37;;;2.83;;
24153;SDS011;12312;53.362;-1.518;2023-05-07T16:07:37;7.47;;;3.15;;
24153;SDS011;12312;53.362;-1.518;2023-05-07T16:10:21;6.07;;;2.70;;
24153;SDS011;12312;53.362;-1.518;2023-05-07T16:13:05;6.53;;;2.85;;
24153;SDS011;12312;53.362;-1.518;2023-05-07T16:15:54;4.82;;;2.40;;
24153;SDS011;12312;53.362;-1.518;2023-05-07T16:18:40;5.18;;;2.20;;
24153;SDS011;12312;53.362;-1.518;2023-05-07T16:21:24;4.65;;;1.98;;
24153;SDS011;12312;53.362;-1.518;2023-05-07T16:24:08;3.63;;;1.80;;
24153;SDS011;12312;53.362;-1.518;2023-05-07T16:26:52;6.88;;;1.90;;
24153;SDS011;12312;53.362;-1.518;2023-05-07T16:29:36;2.92;;;1.60;;